sensor_id;sensor_type;location;lat;lon;timestamp;P1;durP1;ratioP1;P2;durP2;ratioP2
39524;SDS011;25203;50.754;6.978;2022-11-22T00:00:57;3.42;;;1.60;;
39524;SDS011;25203;50.754;6.978;2022-11-22T00:02:57;13.98;;;1.85;;
39524;SDS011;25203;50.754;6.978;2022-11-22T00:04:59;4.90;;;1.70;;
39524;SDS011;25203;50.754;6.978;2022-11-22T00:07:00;6.53;;;1.70;;
39524;SDS011;25203;50.754;6.978;2022-11-22T00:09:00;4.38;;;1.50;;
39524;SDS011;25203;50.754;6.978;2022-11-22T00:11:01;4.15;;;1.67;;
39524;SDS011;25203;50.754;6.978;2022-11-22T00:13:02;4.28;;;1.65;;
39524;SDS011;25203;50.754;6.978;2022-11-22T00:15:03;7.82;;;2.50;;
39524;SDS011;25203;50.754;6.978;2022-11-22T00:17:04;5.93;;;1.63;;
39524;SDS011;25203;50.754;6.978;2022-11-22T00:19:05;6.90;;;1.50;;
39524;SDS011;25203;50.754;6.978;2022-11-22T00:21:06;3.30;;;1.25;;
39524;SDS011;25203;50.754;6.978;2022-11-22T00:23:07;6.47;;;3.13;;
39524;SDS011;25203;50.754;6.978;2022-11-22T00:25:08;3.88;;;1.80;;
39524;SDS011;25203;50.754;6.978;2022-11-22T00:27:09;11.02;;;3.67;;
39524;SDS011;25203;50.754;6.978;2022-11-22T00:29:09;5.65;;;1.70;;
39524;SDS011;25203;50.754;6.978;2022-11-22T00:31:13;2.97;;;1.55;;
39524;SDS011;25203;50.754;6.978;2022-11-22T00:33:13;10.23;;;2.20;;
39524;SDS011;25203;50.754;6.978;2022-11-22T00:35:14;3.33;;;1.42;;
39524;SDS011;25203;50.754;6.978;2022-11-22T00:37:14;3.35;;;1.65;;
39524;SDS011;25203;50.754;6.978;2022-11-22T00:39:15;4.20;;;1.52;;
39524;SDS011;25203;50.754;6.978;2022-11-22T00:41:15;4.95;;;1.75;;
39524;SDS011;25203;50.754;6.978;2022-11-22T00:43:16;6.25;;;2.08;;
39524;SDS011;25203;50.754;6.978;2022-11-22T00:45:17;4.78;;;1.90;;
39524;SDS011;25203;50.754;6.978;2022-11-22T00:47:17;5.32;;;1.70;;
39524;SDS011;25203;50.754;6.978;2022-11-22T00:49:18;4.50;;;1.40;;
39524;SDS011;25203;50.754;6.978;2022-11-22T00:51:18;4.85;;;1.42;;
39524;SDS011;25203;50.754;6.978;2022-11-22T00:53:19;6.55;;;1.88;;
39524;SDS011;25203;50.754;6.978;2022-11-22T00:55:20;3.67;;;1.50;;
39524;SDS011;25203;50.754;6.978;2022-11-22T00:57:20;3.08;;;1.17;;
39524;SDS011;25203;50.754;6.978;2022-11-22T00:59:21;4.20;;;1.40;;
39524;SDS011;25203;50.754;6.978;2022-11-22T01:01:23;3.58;;;1.20;;
39524;SDS011;25203;50.754;6.978;2022-11-22T01:03:24;4.05;;;1.20;;
39524;SDS011;25203;50.754;6.978;2022-11-22T01:05:25;4.75;;;1.70;;
39524;SDS011;25203;50.754;6.978;2022-11-22T01:07:26;1.85;;;0.85;;
39524;SDS011;25203;50.754;6.978;2022-11-22T01:09:26;3.10;;;1.10;;
39524;SDS011;25203;50.754;6.978;2022-11-22T01:11:27;3.30;;;1.08;;
39524;SDS011;25203;50.754;6.978;2022-11-22T01:13:28;2.45;;;1.00;;
39524;SDS011;25203;50.754;6.978;2022-11-22T01:15:28;3.42;;;1.02;;
39524;SDS011;25203;50.754;6.978;2022-11-22T01:17:29;3.55;;;1.10;;
39524;SDS011;25203;50.754;6.978;2022-11-22T01:19:30;2.45;;;1.00;;
39524;SDS011;25203;50.754;6.978;2022-11-22T01:21:30;5.57;;;1.25;;
39524;SDS011;25203;50.754;6.978;2022-11-22T01:23:32;2.78;;;0.80;;
39524;SDS011;25203;50.754;6.978;2022-11-22T01:25:33;4.22;;;1.00;;
39524;SDS011;25203;50.754;6.978;2022-11-22T01:27:34;3.22;;;1.00;;
39524;SDS011;25203;50.754;6.978;2022-11-22T01:29:35;1.63;;;0.98;;
39524;SDS011;25203;50.754;6.978;2022-11-22T01:31:35;3.70;;;1.00;;
39524;SDS011;25203;50.754;6.978;2022-11-22T01:33:36;2.05;;;0.90;;
39524;SDS011;25203;50.754;6.978;2022-11-22T01:35:37;3.08;;;1.02;;
39524;SDS011;25203;50.754;6.978;2022-11-22T01:37:37;0.80;;;0.80;;
39524;SDS011;25203;50.754;6.978;2022-11-22T01:39:38;3.47;;;1.20;;
39524;SDS011;25203;50.754;6.978;2022-11-22T01:41:38;0.60;;;0.60;;
39524;SDS011;25203;50.754;6.978;2022-11-22T01:43:39;1.70;;;0.93;;
39524;SDS011;25203;50.754;6.978;2022-11-22T01:45:44;1.00;;;0.88;;
39524;SDS011;25203;50.754;6.978;2022-11-22T01:47:46;1.40;;;0.85;;
39524;SDS011;25203;50.754;6.978;2022-11-22T01:49:51;1.15;;;0.80;;
39524;SDS011;25203;50.754;6.978;2022-11-22T01:51:58;1.63;;;0.82;;
39524;SDS011;25203;50.754;6.978;2022-11-22T01:54:11;2.03;;;0.90;;
39524;SDS011;25203;50.754;6.978;2022-11-22T01:56:16;1.73;;;0.77;;
39524;SDS011;25203;50.754;6.978;2022-11-22T01:58:19;7.68;;;1.30;;
39524;SDS011;25203;50.754;6.978;2022-11-22T02:00:22;1.83;;;1.27;;
39524;SDS011;25203;50.754;6.978;2022-11-22T02:02:23;2.28;;;0.93;;
39524;SDS011;25203;50.754;6.978;2022-11-22T02:04:24;2.58;;;0.75;;
39524;SDS011;25203;50.754;6.978;2022-11-22T02:06:30;2.33;;;0.70;;
39524;SDS011;25203;50.754;6.978;2022-11-22T02:09:03;4.43;;;0.95;;
39524;SDS011;25203;50.754;6.978;2022-11-22T02:11:11;2.63;;;0.75;;
39524;SDS011;25203;50.754;6.978;2022-11-22T02:13:13;4.85;;;1.00;;
39524;SDS011;25203;50.754;6.978;2022-11-22T02:15:14;1.17;;;0.80;;
39524;SDS011;25203;50.754;6.978;2022-11-22T02:17:15;3.38;;;0.90;;
39524;SDS011;25203;50.754;6.978;2022-11-22T02:21:42;6.00;;;1.27;;
39524;SDS011;25203;50.754;6.978;2022-11-22T02:26:15;1.97;;;0.73;;
39524;SDS011;25203;50.754;6.978;2022-11-22T02:28:16;3.47;;;0.93;;
39524;SDS011;25203;50.754;6.978;2022-11-22T02:30:16;5.57;;;0.95;;
39524;SDS011;25203;50.754;6.978;2022-11-22T02:32:18;3.78;;;0.75;;
39524;SDS011;25203;50.754;6.978;2022-11-22T02:34:18;4.53;;;1.00;;
39524;SDS011;25203;50.754;6.978;2022-11-22T02:36:19;5.45;;;1.08;;
39524;SDS011;25203;50.754;6.978;2022-11-22T02:38:20;6.25;;;1.20;;
39524;SDS011;25203;50.754;6.978;2022-11-22T02:40:24;6.13;;;1.20;;
39524;SDS011;25203;50.754;6.978;2022-11-22T02:42:27;5.00;;;1.05;;
39524;SDS011;25203;50.754;6.978;2022-11-22T02:44:30;7.07;;;1.30;;
39524;SDS011;25203;50.754;6.978;2022-11-22T02:46:30;5.32;;;1.10;;
39524;SDS011;25203;50.754;6.978;2022-11-22T02:48:31;7.38;;;1.50;;
39524;SDS011;25203;50.754;6.978;2022-11-22T02:50:32;4.97;;;1.25;;
39524;SDS011;25203;50.754;6.978;2022-11-22T02:52:32;6.63;;;1.30;;
39524;SDS011;25203;50.754;6.978;2022-11-22T02:54:33;7.20;;;1.13;;
39524;SDS011;25203;50.754;6.978;2022-11-22T02:56:33;5.93;;;1.30;;
39524;SDS011;25203;50.754;6.978;2022-11-22T02:58:34;8.70;;;1.35;;
39524;SDS011;25203;50.754;6.978;2022-11-22T03:00:35;8.10;;;2.22;;
39524;SDS011;25203;50.754;6.978;2022-11-22T03:02:37;8.38;;;1.30;;
39524;SDS011;25203;50.754;6.978;2022-11-22T03:04:38;9.23;;;1.20;;
39524;SDS011;25203;50.754;6.978;2022-11-22T03:06:38;7.35;;;1.40;;
39524;SDS011;25203;50.754;6.978;2022-11-22T03:08:39;10.65;;;1.55;;
39524;SDS011;25203;50.754;6.978;2022-11-22T03:10:40;6.13;;;1.30;;
39524;SDS011;25203;50.754;6.978;2022-11-22T03:12:40;6.80;;;1.48;;
39524;SDS011;25203;50.754;6.978;2022-11-22T03:14:42;4.55;;;1.65;;
39524;SDS011;25203;50.754;6.978;2022-11-22T03:16:43;9.32;;;1.27;;
39524;SDS011;25203;50.754;6.978;2022-11-22T03:18:45;10.20;;;2.60;;
39524;SDS011;25203;50.754;6.978;2022-11-22T03:20:46;6.40;;;1.70;;
39524;SDS011;25203;50.754;6.978;2022-11-22T03:22:46;13.82;;;1.70;;
39524;SDS011;25203;50.754;6.978;2022-11-22T03:24:47;12.00;;;1.90;;
39524;SDS011;25203;50.754;6.978;2022-11-22T03:26:48;4.50;;;1.38;;
39524;SDS011;25203;50.754;6.978;2022-11-22T03:28:49;12.40;;;1.80;;
39524;SDS011;25203;50.754;6.978;2022-11-22T03:30:50;7.65;;;1.90;;
39524;SDS011;25203;50.754;6.978;2022-11-22T03:32:50;11.20;;;2.33;;
39524;SDS011;25203;50.754;6.978;2022-11-22T03:34:51;11.23;;;1.77;;
39524;SDS011;25203;50.754;6.978;2022-11-22T03:36:51;11.82;;;1.80;;
39524;SDS011;25203;50.754;6.978;2022-11-22T03:38:52;12.80;;;2.03;;
39524;SDS011;25203;50.754;6.978;2022-11-22T03:40:52;15.68;;;2.15;;
39524;SDS011;25203;50.754;6.978;2022-11-22T03:42:53;10.07;;;2.22;;
39524;SDS011;25203;50.754;6.978;2022-11-22T03:44:54;17.85;;;2.05;;
39524;SDS011;25203;50.754;6.978;2022-11-22T03:46:54;15.70;;;2.97;;
39524;SDS011;25203;50.754;6.978;2022-11-22T03:48:55;10.77;;;2.25;;
39524;SDS011;25203;50.754;6.978;2022-11-22T03:51:02;16.75;;;2.47;;
39524;SDS011;25203;50.754;6.978;2022-11-22T03:53:04;9.23;;;2.97;;
39524;SDS011;25203;50.754;6.978;2022-11-22T03:55:05;13.95;;;3.08;;
39524;SDS011;25203;50.754;6.978;2022-11-22T03:57:05;10.70;;;2.35;;
39524;SDS011;25203;50.754;6.978;2022-11-22T03:59:06;15.30;;;2.33;;
39524;SDS011;25203;50.754;6.978;2022-11-22T04:01:07;6.97;;;1.70;;
39524;SDS011;25203;50.754;6.978;2022-11-22T04:03:07;7.22;;;1.85;;
39524;SDS011;25203;50.754;6.978;2022-11-22T04:05:08;8.38;;;1.33;;
39524;SDS011;25203;50.754;6.978;2022-11-22T04:07:09;10.10;;;1.70;;
39524;SDS011;25203;50.754;6.978;2022-11-22T04:09:09;7.28;;;1.58;;
39524;SDS011;25203;50.754;6.978;2022-11-22T04:11:10;13.68;;;2.10;;
39524;SDS011;25203;50.754;6.978;2022-11-22T04:13:11;7.40;;;1.60;;
39524;SDS011;25203;50.754;6.978;2022-11-22T04:15:11;11.35;;;1.75;;
39524;SDS011;25203;50.754;6.978;2022-11-22T04:17:12;11.68;;;1.75;;
39524;SDS011;25203;50.754;6.978;2022-11-22T04:19:13;7.68;;;1.80;;
39524;SDS011;25203;50.754;6.978;2022-11-22T04:21:14;12.40;;;1.90;;
39524;SDS011;25203;50.754;6.978;2022-11-22T04:23:32;10.77;;;2.55;;
39524;SDS011;25203;50.754;6.978;2022-11-22T04:25:34;8.88;;;1.55;;
39524;SDS011;25203;50.754;6.978;2022-11-22T04:27:36;11.82;;;2.95;;
39524;SDS011;25203;50.754;6.978;2022-11-22T04:29:36;13.57;;;2.25;;
39524;SDS011;25203;50.754;6.978;2022-11-22T04:31:37;9.30;;;2.03;;
39524;SDS011;25203;50.754;6.978;2022-11-22T04:33:57;9.07;;;1.90;;
39524;SDS011;25203;50.754;6.978;2022-11-22T04:35:58;14.65;;;2.67;;
39524;SDS011;25203;50.754;6.978;2022-11-22T04:37:59;14.43;;;2.10;;
39524;SDS011;25203;50.754;6.978;2022-11-22T04:39:59;9.65;;;2.30;;
39524;SDS011;25203;50.754;6.978;2022-11-22T04:42:00;8.68;;;1.90;;
39524;SDS011;25203;50.754;6.978;2022-11-22T04:44:19;13.95;;;2.13;;
39524;SDS011;25203;50.754;6.978;2022-11-22T04:46:38;12.13;;;2.92;;
39524;SDS011;25203;50.754;6.978;2022-11-22T04:48:39;11.93;;;2.22;;
39524;SDS011;25203;50.754;6.978;2022-11-22T04:50:40;11.48;;;1.80;;
39524;SDS011;25203;50.754;6.978;2022-11-22T04:53:00;13.80;;;2.30;;
39524;SDS011;25203;50.754;6.978;2022-11-22T04:55:01;23.92;;;3.47;;
39524;SDS011;25203;50.754;6.978;2022-11-22T04:57:01;8.50;;;2.20;;
39524;SDS011;25203;50.754;6.978;2022-11-22T04:59:02;14.85;;;2.58;;
39524;SDS011;25203;50.754;6.978;2022-11-22T05:01:03;13.43;;;2.75;;
39524;SDS011;25203;50.754;6.978;2022-11-22T05:03:04;13.32;;;2.75;;
39524;SDS011;25203;50.754;6.978;2022-11-22T05:05:05;11.05;;;3.20;;
39524;SDS011;25203;50.754;6.978;2022-11-22T05:07:06;15.70;;;2.42;;
39524;SDS011;25203;50.754;6.978;2022-11-22T05:09:07;11.10;;;2.15;;
39524;SDS011;25203;50.754;6.978;2022-11-22T05:11:07;12.98;;;3.28;;
39524;SDS011;25203;50.754;6.978;2022-11-22T05:13:08;10.50;;;2.25;;
39524;SDS011;25203;50.754;6.978;2022-11-22T05:15:09;16.73;;;2.50;;
39524;SDS011;25203;50.754;6.978;2022-11-22T05:17:10;15.00;;;2.45;;
39524;SDS011;25203;50.754;6.978;2022-11-22T05:19:11;11.52;;;2.55;;
39524;SDS011;25203;50.754;6.978;2022-11-22T05:21:12;12.18;;;2.05;;
39524;SDS011;25203;50.754;6.978;2022-11-22T05:23:14;8.07;;;1.63;;
39524;SDS011;25203;50.754;6.978;2022-11-22T05:25:33;10.00;;;1.67;;
39524;SDS011;25203;50.754;6.978;2022-11-22T05:27:34;9.70;;;2.15;;
39524;SDS011;25203;50.754;6.978;2022-11-22T05:29:34;20.25;;;2.63;;
39524;SDS011;25203;50.754;6.978;2022-11-22T05:31:36;11.23;;;2.08;;
39524;SDS011;25203;50.754;6.978;2022-11-22T05:33:38;10.18;;;1.95;;
39524;SDS011;25203;50.754;6.978;2022-11-22T05:35:40;11.07;;;2.28;;
39524;SDS011;25203;50.754;6.978;2022-11-22T05:37:41;15.57;;;2.55;;
39524;SDS011;25203;50.754;6.978;2022-11-22T05:39:42;10.95;;;1.98;;
39524;SDS011;25203;50.754;6.978;2022-11-22T05:41:42;16.83;;;2.25;;
39524;SDS011;25203;50.754;6.978;2022-11-22T05:43:54;12.80;;;2.55;;
39524;SDS011;25203;50.754;6.978;2022-11-22T05:45:55;19.65;;;3.10;;
39524;SDS011;25203;50.754;6.978;2022-11-22T05:48:07;14.68;;;2.50;;
39524;SDS011;25203;50.754;6.978;2022-11-22T05:50:08;9.80;;;2.10;;
39524;SDS011;25203;50.754;6.978;2022-11-22T05:52:08;15.15;;;2.75;;
39524;SDS011;25203;50.754;6.978;2022-11-22T05:54:09;17.00;;;3.22;;
39524;SDS011;25203;50.754;6.978;2022-11-22T05:56:11;14.55;;;2.53;;
39524;SDS011;25203;50.754;6.978;2022-11-22T05:58:13;9.63;;;2.38;;
39524;SDS011;25203;50.754;6.978;2022-11-22T06:00:14;14.18;;;2.05;;
39524;SDS011;25203;50.754;6.978;2022-11-22T06:02:15;13.32;;;2.53;;
39524;SDS011;25203;50.754;6.978;2022-11-22T06:04:16;10.82;;;2.47;;
39524;SDS011;25203;50.754;6.978;2022-11-22T06:06:17;15.27;;;2.90;;
39524;SDS011;25203;50.754;6.978;2022-11-22T06:08:17;15.07;;;3.30;;
39524;SDS011;25203;50.754;6.978;2022-11-22T06:10:18;20.13;;;2.60;;
39524;SDS011;25203;50.754;6.978;2022-11-22T06:12:19;13.85;;;2.88;;
39524;SDS011;25203;50.754;6.978;2022-11-22T06:14:19;9.07;;;3.10;;
39524;SDS011;25203;50.754;6.978;2022-11-22T06:16:20;16.67;;;2.42;;
39524;SDS011;25203;50.754;6.978;2022-11-22T06:18:21;9.30;;;3.08;;
39524;SDS011;25203;50.754;6.978;2022-11-22T06:20:22;16.13;;;2.83;;
39524;SDS011;25203;50.754;6.978;2022-11-22T06:22:23;12.88;;;3.25;;
39524;SDS011;25203;50.754;6.978;2022-11-22T06:24:23;9.80;;;2.60;;
39524;SDS011;25203;50.754;6.978;2022-11-22T06:26:24;11.23;;;2.47;;
39524;SDS011;25203;50.754;6.978;2022-11-22T06:28:25;13.02;;;2.70;;
39524;SDS011;25203;50.754;6.978;2022-11-22T06:30:27;14.43;;;3.00;;
39524;SDS011;25203;50.754;6.978;2022-11-22T06:32:30;13.10;;;3.05;;
39524;SDS011;25203;50.754;6.978;2022-11-22T06:34:32;14.70;;;2.80;;
39524;SDS011;25203;50.754;6.978;2022-11-22T06:36:33;12.70;;;3.58;;
39524;SDS011;25203;50.754;6.978;2022-11-22T06:38:34;15.13;;;2.63;;
39524;SDS011;25203;50.754;6.978;2022-11-22T06:40:35;10.23;;;2.63;;
39524;SDS011;25203;50.754;6.978;2022-11-22T06:42:36;13.73;;;2.90;;
39524;SDS011;25203;50.754;6.978;2022-11-22T06:44:36;15.10;;;2.88;;
39524;SDS011;25203;50.754;6.978;2022-11-22T06:46:37;20.17;;;3.22;;
39524;SDS011;25203;50.754;6.978;2022-11-22T06:48:41;9.23;;;2.25;;
39524;SDS011;25203;50.754;6.978;2022-11-22T06:50:42;19.27;;;2.58;;
39524;SDS011;25203;50.754;6.978;2022-11-22T06:52:42;12.90;;;2.50;;
39524;SDS011;25203;50.754;6.978;2022-11-22T06:54:49;13.93;;;2.17;;
39524;SDS011;25203;50.754;6.978;2022-11-22T06:56:49;11.32;;;2.35;;
39524;SDS011;25203;50.754;6.978;2022-11-22T06:58:50;11.98;;;1.95;;
39524;SDS011;25203;50.754;6.978;2022-11-22T07:00:52;14.40;;;2.85;;
39524;SDS011;25203;50.754;6.978;2022-11-22T07:02:57;12.75;;;2.35;;
39524;SDS011;25203;50.754;6.978;2022-11-22T07:04:59;12.90;;;2.17;;
39524;SDS011;25203;50.754;6.978;2022-11-22T07:07:00;9.27;;;2.83;;
39524;SDS011;25203;50.754;6.978;2022-11-22T07:09:01;11.40;;;3.20;;
39524;SDS011;25203;50.754;6.978;2022-11-22T07:11:06;17.27;;;2.72;;
39524;SDS011;25203;50.754;6.978;2022-11-22T07:13:08;13.73;;;2.42;;
39524;SDS011;25203;50.754;6.978;2022-11-22T07:15:09;12.88;;;2.38;;
39524;SDS011;25203;50.754;6.978;2022-11-22T07:17:10;16.08;;;2.83;;
39524;SDS011;25203;50.754;6.978;2022-11-22T07:19:10;15.07;;;2.47;;
39524;SDS011;25203;50.754;6.978;2022-11-22T07:21:12;14.35;;;2.63;;
39524;SDS011;25203;50.754;6.978;2022-11-22T07:23:14;11.38;;;2.10;;
39524;SDS011;25203;50.754;6.978;2022-11-22T07:25:15;13.70;;;3.17;;
39524;SDS011;25203;50.754;6.978;2022-11-22T07:27:15;12.65;;;2.13;;
39524;SDS011;25203;50.754;6.978;2022-11-22T07:29:16;11.38;;;2.20;;
39524;SDS011;25203;50.754;6.978;2022-11-22T07:31:17;8.77;;;1.92;;
39524;SDS011;25203;50.754;6.978;2022-11-22T07:33:18;8.38;;;1.80;;
39524;SDS011;25203;50.754;6.978;2022-11-22T07:35:19;12.73;;;2.85;;
39524;SDS011;25203;50.754;6.978;2022-11-22T07:37:19;10.10;;;2.00;;
39524;SDS011;25203;50.754;6.978;2022-11-22T07:39:20;8.25;;;2.35;;
39524;SDS011;25203;50.754;6.978;2022-11-22T07:41:20;13.13;;;2.97;;
39524;SDS011;25203;50.754;6.978;2022-11-22T07:43:21;12.40;;;2.58;;
39524;SDS011;25203;50.754;6.978;2022-11-22T07:45:22;7.38;;;1.63;;
39524;SDS011;25203;50.754;6.978;2022-11-22T07:47:22;9.85;;;2.35;;
39524;SDS011;25203;50.754;6.978;2022-11-22T07:49:23;14.25;;;2.22;;
39524;SDS011;25203;50.754;6.978;2022-11-22T07:51:24;8.68;;;2.10;;
39524;SDS011;25203;50.754;6.978;2022-11-22T07:53:25;14.20;;;2.75;;
39524;SDS011;25203;50.754;6.978;2022-11-22T07:55:25;10.38;;;1.80;;
39524;SDS011;25203;50.754;6.978;2022-11-22T07:57:26;10.15;;;1.90;;
39524;SDS011;25203;50.754;6.978;2022-11-22T07:59:27;5.85;;;1.75;;
39524;SDS011;25203;50.754;6.978;2022-11-22T08:01:28;8.93;;;2.38;;
39524;SDS011;25203;50.754;6.978;2022-11-22T08:03:28;7.97;;;1.63;;
39524;SDS011;25203;50.754;6.978;2022-11-22T08:05:29;16.65;;;2.45;;
39524;SDS011;25203;50.754;6.978;2022-11-22T08:07:29;8.80;;;2.20;;
39524;SDS011;25203;50.754;6.978;2022-11-22T08:09:30;9.05;;;1.50;;
39524;SDS011;25203;50.754;6.978;2022-11-22T08:11:31;11.73;;;1.85;;
39524;SDS011;25203;50.754;6.978;2022-11-22T08:13:31;12.32;;;2.10;;
39524;SDS011;25203;50.754;6.978;2022-11-22T08:15:33;10.15;;;1.65;;
39524;SDS011;25203;50.754;6.978;2022-11-22T08:17:33;3.90;;;1.10;;
39524;SDS011;25203;50.754;6.978;2022-11-22T08:19:34;10.13;;;1.48;;
39524;SDS011;25203;50.754;6.978;2022-11-22T08:21:34;7.28;;;1.80;;
39524;SDS011;25203;50.754;6.978;2022-11-22T08:23:36;5.80;;;1.42;;
39524;SDS011;25203;50.754;6.978;2022-11-22T08:25:37;6.68;;;1.52;;
39524;SDS011;25203;50.754;6.978;2022-11-22T08:27:41;8.95;;;1.95;;
39524;SDS011;25203;50.754;6.978;2022-11-22T08:29:42;5.70;;;1.35;;
39524;SDS011;25203;50.754;6.978;2022-11-22T08:31:43;6.93;;;1.50;;
39524;SDS011;25203;50.754;6.978;2022-11-22T08:33:44;6.50;;;1.38;;
39524;SDS011;25203;50.754;6.978;2022-11-22T08:35:48;5.47;;;1.35;;
39524;SDS011;25203;50.754;6.978;2022-11-22T08:37:53;6.55;;;1.80;;
39524;SDS011;25203;50.754;6.978;2022-11-22T08:39:55;5.15;;;1.33;;
39524;SDS011;25203;50.754;6.978;2022-11-22T08:41:56;6.28;;;1.33;;
39524;SDS011;25203;50.754;6.978;2022-11-22T08:43:56;5.38;;;1.48;;
39524;SDS011;25203;50.754;6.978;2022-11-22T08:45:57;4.88;;;1.50;;
39524;SDS011;25203;50.754;6.978;2022-11-22T08:47:58;4.85;;;1.50;;
39524;SDS011;25203;50.754;6.978;2022-11-22T08:49:59;3.95;;;1.20;;
39524;SDS011;25203;50.754;6.978;2022-11-22T08:52:00;6.82;;;1.48;;
39524;SDS011;25203;50.754;6.978;2022-11-22T08:54:00;8.88;;;1.60;;
39524;SDS011;25203;50.754;6.978;2022-11-22T08:56:01;7.05;;;1.50;;
39524;SDS011;25203;50.754;6.978;2022-11-22T08:58:03;7.38;;;1.63;;
39524;SDS011;25203;50.754;6.978;2022-11-22T09:00:04;4.57;;;1.88;;
39524;SDS011;25203;50.754;6.978;2022-11-22T09:02:07;5.57;;;1.30;;
39524;SDS011;25203;50.754;6.978;2022-11-22T09:04:08;9.18;;;1.75;;
39524;SDS011;25203;50.754;6.978;2022-11-22T09:06:10;5.85;;;1.63;;
39524;SDS011;25203;50.754;6.978;2022-11-22T09:08:13;6.82;;;1.63;;
39524;SDS011;25203;50.754;6.978;2022-11-22T09:10:14;5.88;;;1.45;;
39524;SDS011;25203;50.754;6.978;2022-11-22T09:12:14;6.88;;;1.27;;
39524;SDS011;25203;50.754;6.978;2022-11-22T09:14:15;10.60;;;1.77;;
39524;SDS011;25203;50.754;6.978;2022-11-22T09:16:19;7.90;;;1.70;;
39524;SDS011;25203;50.754;6.978;2022-11-22T09:18:20;5.60;;;1.42;;
39524;SDS011;25203;50.754;6.978;2022-11-22T09:20:20;8.73;;;1.58;;
39524;SDS011;25203;50.754;6.978;2022-11-22T09:22:21;11.25;;;1.80;;
39524;SDS011;25203;50.754;6.978;2022-11-22T09:24:21;8.18;;;1.23;;
39524;SDS011;25203;50.754;6.978;2022-11-22T09:26:22;8.20;;;1.50;;
39524;SDS011;25203;50.754;6.978;2022-11-22T09:28:24;4.13;;;1.20;;
39524;SDS011;25203;50.754;6.978;2022-11-22T09:30:26;5.25;;;1.80;;
39524;SDS011;25203;50.754;6.978;2022-11-22T09:32:26;6.80;;;1.80;;
39524;SDS011;25203;50.754;6.978;2022-11-22T09:34:27;6.63;;;1.92;;
39524;SDS011;25203;50.754;6.978;2022-11-22T09:36:28;11.90;;;2.05;;
39524;SDS011;25203;50.754;6.978;2022-11-22T09:38:29;8.25;;;1.80;;
39524;SDS011;25203;50.754;6.978;2022-11-22T09:40:31;8.70;;;1.58;;
39524;SDS011;25203;50.754;6.978;2022-11-22T09:44:49;6.93;;;2.13;;
39524;SDS011;25203;50.754;6.978;2022-11-22T09:51:21;6.15;;;1.20;;
39524;SDS011;25203;50.754;6.978;2022-11-22T09:53:35;3.85;;;1.33;;
39524;SDS011;25203;50.754;6.978;2022-11-22T09:55:44;3.58;;;1.58;;
39524;SDS011;25203;50.754;6.978;2022-11-22T09:57:55;6.05;;;1.23;;
39524;SDS011;25203;50.754;6.978;2022-11-22T10:00:19;6.03;;;1.38;;
39524;SDS011;25203;50.754;6.978;2022-11-22T10:02:28;6.50;;;1.70;;
39524;SDS011;25203;50.754;6.978;2022-11-22T10:04:55;8.45;;;1.55;;
39524;SDS011;25203;50.754;6.978;2022-11-22T10:13:43;1.92;;;1.05;;
39524;SDS011;25203;50.754;6.978;2022-11-22T10:16:02;2.95;;;0.82;;
39524;SDS011;25203;50.754;6.978;2022-11-22T10:18:35;6.05;;;1.08;;
39524;SDS011;25203;50.754;6.978;2022-11-22T10:20:39;5.25;;;1.33;;
39524;SDS011;25203;50.754;6.978;2022-11-22T10:22:40;5.95;;;1.00;;
39524;SDS011;25203;50.754;6.978;2022-11-22T10:24:41;2.97;;;1.15;;
39524;SDS011;25203;50.754;6.978;2022-11-22T10:26:42;8.02;;;1.40;;
39524;SDS011;25203;50.754;6.978;2022-11-22T10:30:52;2.22;;;1.20;;
39524;SDS011;25203;50.754;6.978;2022-11-22T10:33:13;2.00;;;0.70;;
39524;SDS011;25203;50.754;6.978;2022-11-22T10:35:22;4.68;;;0.70;;
39524;SDS011;25203;50.754;6.978;2022-11-22T10:39:51;3.97;;;1.10;;
39524;SDS011;25203;50.754;6.978;2022-11-22T10:44:29;3.38;;;1.02;;
39524;SDS011;25203;50.754;6.978;2022-11-22T10:46:44;3.40;;;0.80;;
39524;SDS011;25203;50.754;6.978;2022-11-22T10:48:59;3.50;;;1.48;;
39524;SDS011;25203;50.754;6.978;2022-11-22T10:51:28;2.17;;;0.88;;
39524;SDS011;25203;50.754;6.978;2022-11-22T10:53:58;3.65;;;0.95;;
39524;SDS011;25203;50.754;6.978;2022-11-22T11:00:46;1.65;;;0.60;;
39524;SDS011;25203;50.754;6.978;2022-11-22T11:05:09;2.78;;;0.80;;
39524;SDS011;25203;50.754;6.978;2022-11-22T11:07:16;2.77;;;0.90;;
39524;SDS011;25203;50.754;6.978;2022-11-22T11:09:37;2.97;;;0.60;;
39524;SDS011;25203;50.754;6.978;2022-11-22T11:11:49;0.70;;;0.65;;
39524;SDS011;25203;50.754;6.978;2022-11-22T11:13:52;8.30;;;0.90;;
39524;SDS011;25203;50.754;6.978;2022-11-22T11:15:58;2.03;;;0.70;;
39524;SDS011;25203;50.754;6.978;2022-11-22T11:18:03;1.75;;;0.70;;
39524;SDS011;25203;50.754;6.978;2022-11-22T11:20:13;3.83;;;0.70;;
39524;SDS011;25203;50.754;6.978;2022-11-22T11:22:22;3.63;;;0.88;;
39524;SDS011;25203;50.754;6.978;2022-11-22T11:24:26;3.67;;;0.88;;
39524;SDS011;25203;50.754;6.978;2022-11-22T11:26:30;3.03;;;0.88;;
39524;SDS011;25203;50.754;6.978;2022-11-22T11:28:33;1.55;;;0.73;;
39524;SDS011;25203;50.754;6.978;2022-11-22T11:30:37;4.32;;;1.00;;
39524;SDS011;25203;50.754;6.978;2022-11-22T11:32:56;3.25;;;0.70;;
39524;SDS011;25203;50.754;6.978;2022-11-22T11:34:59;5.45;;;0.95;;
39524;SDS011;25203;50.754;6.978;2022-11-22T11:37:03;2.47;;;0.77;;
39524;SDS011;25203;50.754;6.978;2022-11-22T11:39:04;5.57;;;1.98;;
39524;SDS011;25203;50.754;6.978;2022-11-22T11:43:30;2.30;;;0.73;;
39524;SDS011;25203;50.754;6.978;2022-11-22T11:45:30;2.05;;;0.75;;
39524;SDS011;25203;50.754;6.978;2022-11-22T11:47:32;5.28;;;1.20;;
39524;SDS011;25203;50.754;6.978;2022-11-22T11:49:33;2.65;;;1.20;;
39524;SDS011;25203;50.754;6.978;2022-11-22T11:51:36;4.25;;;1.05;;
39524;SDS011;25203;50.754;6.978;2022-11-22T11:53:48;2.25;;;0.80;;
39524;SDS011;25203;50.754;6.978;2022-11-22T11:56:17;6.35;;;0.82;;
39524;SDS011;25203;50.754;6.978;2022-11-22T11:58:38;2.40;;;0.75;;
39524;SDS011;25203;50.754;6.978;2022-11-22T12:00:38;4.25;;;1.35;;
39524;SDS011;25203;50.754;6.978;2022-11-22T12:02:40;2.05;;;0.82;;
39524;SDS011;25203;50.754;6.978;2022-11-22T12:04:49;4.45;;;0.80;;
39524;SDS011;25203;50.754;6.978;2022-11-22T12:07:02;2.30;;;0.65;;
39524;SDS011;25203;50.754;6.978;2022-11-22T12:09:25;2.33;;;0.80;;
39524;SDS011;25203;50.754;6.978;2022-11-22T12:11:45;2.85;;;0.80;;
39524;SDS011;25203;50.754;6.978;2022-11-22T12:13:51;1.58;;;0.75;;
39524;SDS011;25203;50.754;6.978;2022-11-22T12:15:59;2.35;;;0.98;;
39524;SDS011;25203;50.754;6.978;2022-11-22T12:18:22;3.42;;;0.85;;
39524;SDS011;25203;50.754;6.978;2022-11-22T12:20:40;1.42;;;0.50;;
39524;SDS011;25203;50.754;6.978;2022-11-22T12:27:31;3.13;;;1.40;;
39524;SDS011;25203;50.754;6.978;2022-11-22T12:29:32;1.45;;;0.57;;
39524;SDS011;25203;50.754;6.978;2022-11-22T12:31:37;0.60;;;0.50;;
39524;SDS011;25203;50.754;6.978;2022-11-22T12:33:47;3.80;;;0.70;;
39524;SDS011;25203;50.754;6.978;2022-11-22T12:36:01;2.97;;;0.50;;
39524;SDS011;25203;50.754;6.978;2022-11-22T12:38:22;1.77;;;0.60;;
39524;SDS011;25203;50.754;6.978;2022-11-22T12:40:40;1.92;;;0.47;;
39524;SDS011;25203;50.754;6.978;2022-11-22T12:42:56;1.33;;;0.47;;
39524;SDS011;25203;50.754;6.978;2022-11-22T12:45:05;0.82;;;0.30;;
39524;SDS011;25203;50.754;6.978;2022-11-22T12:47:12;0.80;;;0.47;;
39524;SDS011;25203;50.754;6.978;2022-11-22T12:54:01;0.90;;;0.40;;
39524;SDS011;25203;50.754;6.978;2022-11-22T12:56:22;1.55;;;0.60;;
39524;SDS011;25203;50.754;6.978;2022-11-22T13:00:33;1.77;;;0.50;;
39524;SDS011;25203;50.754;6.978;2022-11-22T13:02:39;2.17;;;0.40;;
39524;SDS011;25203;50.754;6.978;2022-11-22T13:05:04;0.40;;;0.40;;
39524;SDS011;25203;50.754;6.978;2022-11-22T13:07:26;0.63;;;0.50;;